Preview of NWS' New Version of Forecast
This preview is not operational and should not be used for support decisions.

Terminal Aerodrome Forecast (TAF)

Issued by National Weather Service (NWS)

                            
000
FTUS41 KGYX 231720
TAFRKD
TAF
KRKD 231720Z 2318/2418 22008KT P6SM OVC250
     FM240400 23006KT 3SM BR VCSH OVC007
     FM240600 23006KT 1 1/2SM BR OVC003
     FM241300 22006KT P6SM SCT008 BKN025=